createdAt,value
2018-06-20T00:00:07.662Z,1019.09
2018-06-20T00:01:07.670Z,1019.08
2018-06-20T00:02:07.674Z,1019.06
2018-06-20T00:03:07.677Z,1019.05
2018-06-20T00:04:07.693Z,1019.03
2018-06-20T00:05:07.885Z,1019.00
2018-06-20T00:06:07.698Z,1019.02
2018-06-20T00:07:07.699Z,1019.02
2018-06-20T00:08:07.702Z,1019.00
2018-06-20T00:09:07.910Z,1018.99
2018-06-20T00:10:07.918Z,1018.99
2018-06-20T00:11:07.707Z,1018.96
2018-06-20T00:12:07.922Z,1018.97
2018-06-20T00:13:07.726Z,1018.93
2018-06-20T00:14:07.918Z,1018.93
2018-06-20T00:15:07.924Z,1018.95
2018-06-20T00:16:07.927Z,1018.91
2018-06-20T00:17:07.729Z,1018.87
2018-06-20T00:18:07.733Z,1018.84
2018-06-20T00:19:07.746Z,1018.84
2018-06-20T00:20:07.972Z,1018.84
2018-06-20T00:21:07.744Z,1018.87
2018-06-20T00:22:07.748Z,1018.84
2018-06-20T00:23:07.761Z,1018.79
2018-06-20T00:24:07.768Z,1018.84
2018-06-20T00:25:07.967Z,1018.82
2018-06-20T00:26:07.764Z,1018.83
2018-06-20T00:27:07.769Z,1018.78
2018-06-20T00:28:07.985Z,1018.81
2018-06-20T00:29:07.774Z,1018.82
2018-06-20T00:30:07.787Z,1018.80
2018-06-20T00:31:07.803Z,1018.78
2018-06-20T00:32:07.802Z,1018.79
2018-06-20T00:33:07.789Z,1018.80
2018-06-20T00:34:07.791Z,1018.78
2018-06-20T00:35:07.796Z,1018.77
2018-06-20T00:36:07.813Z,1018.77
2018-06-20T00:37:07.803Z,1018.76
2018-06-20T00:38:07.840Z,1018.78
2018-06-20T00:39:07.811Z,1018.74
2018-06-20T00:40:07.844Z,1018.77
2018-06-20T00:41:07.819Z,1018.73
2018-06-20T00:42:07.823Z,1018.77
2018-06-20T00:43:07.827Z,1018.76
2018-06-20T00:44:07.830Z,1018.74
2018-06-20T00:45:08.049Z,1018.74
2018-06-20T00:46:07.868Z,1018.73
2018-06-20T00:47:07.841Z,1018.69
2018-06-20T00:48:07.848Z,1018.70
2018-06-20T00:49:08.076Z,1018.74
2018-06-20T00:50:07.853Z,1018.74
2018-06-20T00:51:07.855Z,1018.73
2018-06-20T00:52:07.865Z,1018.70
2018-06-20T00:53:07.878Z,1018.74
2018-06-20T00:54:07.869Z,1018.73
2018-06-20T00:55:07.883Z,1018.75
2018-06-20T00:56:08.092Z,1018.73
2018-06-20T00:57:07.880Z,1018.73
2018-06-20T00:58:07.880Z,1018.70
2018-06-20T00:59:07.885Z,1018.69
2018-06-20T01:00:07.900Z,1018.67
2018-06-20T01:01:07.895Z,1018.67
2018-06-20T01:02:08.102Z,1018.64
2018-06-20T01:03:07.902Z,1018.62
2018-06-20T01:04:07.905Z,1018.64
2018-06-20T01:05:07.913Z,1018.61
2018-06-20T01:06:07.926Z,1018.61
2018-06-20T01:07:07.928Z,1018.58
2018-06-20T01:08:07.919Z,1018.55
2018-06-20T01:09:07.939Z,1018.55
2018-06-20T01:10:07.927Z,1018.53
2018-06-20T01:11:08.149Z,1018.53
2018-06-20T01:12:07.938Z,1018.48
2018-06-20T01:13:07.950Z,1018.49
2018-06-20T01:14:07.945Z,1018.43
2018-06-20T01:15:08.149Z,1018.43
2018-06-20T01:16:07.954Z,1018.46
2018-06-20T01:17:08.157Z,1018.45
2018-06-20T01:18:07.990Z,1018.44
2018-06-20T01:19:08.183Z,1018.39
2018-06-20T01:20:08.174Z,1018.39
2018-06-20T01:21:07.972Z,1018.42
2018-06-20T01:22:07.978Z,1018.48
2018-06-20T01:23:08.194Z,1018.50
2018-06-20T01:24:07.988Z,1018.52
2018-06-20T01:25:07.991Z,1018.51
2018-06-20T01:26:07.996Z,1018.52
2018-06-20T01:27:08.225Z,1018.56
2018-06-20T01:28:07.999Z,1018.54
2018-06-20T01:29:08.018Z,1018.52
2018-06-20T01:30:08.009Z,1018.54
2018-06-20T01:31:08.010Z,1018.55
2018-06-20T01:32:08.219Z,1018.59
2018-06-20T01:33:08.051Z,1018.62
2018-06-20T01:34:08.023Z,1018.59
2018-06-20T01:35:08.026Z,1018.58
2018-06-20T01:36:08.031Z,1018.59
2018-06-20T01:37:08.048Z,1018.55
2018-06-20T01:38:08.052Z,1018.58
2018-06-20T01:39:08.060Z,1018.56
2018-06-20T01:40:08.047Z,1018.56
2018-06-20T01:41:08.253Z,1018.55
2018-06-20T01:42:08.056Z,1018.52
2018-06-20T01:43:08.278Z,1018.51
2018-06-20T01:44:08.062Z,1018.54
2018-06-20T01:45:08.269Z,1018.51
2018-06-20T01:46:08.275Z,1018.47
2018-06-20T01:47:08.074Z,1018.46
2018-06-20T01:48:08.079Z,1018.43
2018-06-20T01:49:08.081Z,1018.43
2018-06-20T01:50:08.298Z,1018.44
2018-06-20T01:51:08.292Z,1018.41
2018-06-20T01:52:08.143Z,1018.41
2018-06-20T01:53:08.097Z,1018.41
2018-06-20T01:54:08.313Z,1018.40
2018-06-20T01:55:08.106Z,1018.40
2018-06-20T01:56:08.339Z,1018.41
2018-06-20T01:57:08.128Z,1018.41
2018-06-20T01:58:08.116Z,1018.43
2018-06-20T01:59:08.127Z,1018.39
2018-06-20T02:00:08.132Z,1018.40
2018-06-20T02:01:08.356Z,1018.42
2018-06-20T02:02:08.140Z,1018.39
2018-06-20T02:03:08.133Z,1018.42
2018-06-20T02:04:08.137Z,1018.39
2018-06-20T02:05:08.181Z,1018.39
2018-06-20T02:06:08.172Z,1018.35
2018-06-20T02:07:08.163Z,1018.37
2018-06-20T02:08:08.154Z,1018.39
2018-06-20T02:09:08.369Z,1018.36
2018-06-20T02:10:08.188Z,1018.36
2018-06-20T02:11:08.165Z,1018.35
2018-06-20T02:12:08.169Z,1018.31
2018-06-20T02:13:08.184Z,1018.35
2018-06-20T02:14:08.186Z,1018.31
2018-06-20T02:15:08.182Z,1018.34
2018-06-20T02:16:08.189Z,1018.32
2018-06-20T02:17:08.389Z,1018.31
2018-06-20T02:18:08.192Z,1018.32
2018-06-20T02:19:08.194Z,1018.31
2018-06-20T02:20:08.209Z,1018.37
2018-06-20T02:21:08.234Z,1018.30
2018-06-20T02:22:08.206Z,1018.30
2018-06-20T02:23:08.427Z,1018.29
2018-06-20T02:24:08.435Z,1018.30
2018-06-20T02:25:08.219Z,1018.27
2018-06-20T02:26:08.225Z,1018.30
2018-06-20T02:27:08.224Z,1018.31
2018-06-20T02:28:08.231Z,1018.30
2018-06-20T02:29:08.257Z,1018.28
2018-06-20T02:30:08.440Z,1018.30
2018-06-20T02:31:08.242Z,1018.25
2018-06-20T02:32:08.242Z,1018.19
2018-06-20T02:33:08.250Z,1018.23
2018-06-20T02:34:08.264Z,1018.21
2018-06-20T02:35:08.268Z,1018.19
2018-06-20T02:36:08.268Z,1018.19
2018-06-20T02:37:08.264Z,1018.19
2018-06-20T02:38:08.267Z,1018.23
2018-06-20T02:39:08.284Z,1018.22
2018-06-20T02:40:08.295Z,1018.23
2018-06-20T02:41:08.286Z,1018.24
2018-06-20T02:42:08.281Z,1018.23
2018-06-20T02:43:08.284Z,1018.23
2018-06-20T02:44:08.299Z,1018.25
2018-06-20T02:45:08.494Z,1018.28
2018-06-20T02:46:08.519Z,1018.26
2018-06-20T02:47:08.501Z,1018.25
2018-06-20T02:48:08.504Z,1018.24
2018-06-20T02:49:08.318Z,1018.22
2018-06-20T02:50:08.511Z,1018.23
2018-06-20T02:51:08.333Z,1018.24
2018-06-20T02:52:08.339Z,1018.23
2018-06-20T02:53:08.522Z,1018.24
2018-06-20T02:54:08.342Z,1018.21
2018-06-20T02:55:08.340Z,1018.17
2018-06-20T02:56:08.334Z,1018.17
2018-06-20T02:57:08.345Z,1018.16
2018-06-20T02:58:08.348Z,1018.16
2018-06-20T02:59:08.340Z,1018.15
2018-06-20T03:00:08.359Z,1018.09
2018-06-20T03:01:08.378Z,1018.09
2018-06-20T03:02:08.351Z,1018.10
2018-06-20T03:03:08.367Z,1018.10
2018-06-20T03:04:08.358Z,1018.12
2018-06-20T03:05:08.572Z,1018.08
2018-06-20T03:06:08.367Z,1018.09
2018-06-20T03:07:08.369Z,1018.07
2018-06-20T03:08:08.578Z,1018.08
2018-06-20T03:09:08.582Z,1018.08
2018-06-20T03:10:08.385Z,1018.04
2018-06-20T03:11:08.597Z,1018.09
2018-06-20T03:12:08.387Z,1018.05
2018-06-20T03:13:08.404Z,1018.06
2018-06-20T03:14:08.396Z,1018.08
2018-06-20T03:15:08.398Z,1018.08
2018-06-20T03:16:08.420Z,1018.07
2018-06-20T03:17:08.419Z,1018.09
2018-06-20T03:18:08.410Z,1018.09
2018-06-20T03:19:08.412Z,1018.07
2018-06-20T03:20:08.432Z,1018.07
2018-06-20T03:21:08.447Z,1018.05
2018-06-20T03:22:08.429Z,1018.01
2018-06-20T03:23:08.426Z,1018.05
2018-06-20T03:24:08.449Z,1018.07
2018-06-20T03:25:08.462Z,1018.04
2018-06-20T03:26:08.455Z,1018.07
2018-06-20T03:27:08.443Z,1018.07
2018-06-20T03:28:08.477Z,1018.06
2018-06-20T03:29:08.467Z,1018.05
2018-06-20T03:30:08.676Z,1018.07
2018-06-20T03:31:08.483Z,1018.06
2018-06-20T03:32:08.481Z,1018.08
2018-06-20T03:33:08.686Z,1018.05
2018-06-20T03:34:08.700Z,1018.04
2018-06-20T03:35:08.473Z,1018.03
2018-06-20T03:36:08.484Z,1018.03
2018-06-20T03:37:08.684Z,1018.01
2018-06-20T03:38:08.489Z,1018.03
2018-06-20T03:39:08.691Z,1018.05
2018-06-20T03:40:08.493Z,1018.06
2018-06-20T03:41:08.730Z,1018.03
2018-06-20T03:42:08.500Z,1018.07
2018-06-20T03:43:08.509Z,1018.03
2018-06-20T03:44:08.511Z,1018.06
2018-06-20T03:45:08.730Z,1018.01
2018-06-20T03:46:08.544Z,1018.03
2018-06-20T03:47:08.550Z,1018.04
2018-06-20T03:48:08.525Z,1018.00
2018-06-20T03:49:08.528Z,1018.01
2018-06-20T03:50:08.533Z,1017.99
2018-06-20T03:51:08.545Z,1017.98
2018-06-20T03:52:08.538Z,1017.98
2018-06-20T03:53:08.542Z,1017.98
2018-06-20T03:54:08.749Z,1017.95
2018-06-20T03:55:08.551Z,1017.98
2018-06-20T03:56:08.554Z,1017.97
2018-06-20T03:57:08.556Z,1017.99
2018-06-20T03:58:08.560Z,1018.00
2018-06-20T03:59:08.764Z,1017.97
2018-06-20T04:00:08.571Z,1018.00
2018-06-20T04:01:08.570Z,1017.99
2018-06-20T04:02:08.576Z,1017.97
2018-06-20T04:03:08.782Z,1017.98
2018-06-20T04:04:08.784Z,1017.92
2018-06-20T04:05:08.585Z,1017.94
2018-06-20T04:06:08.588Z,1017.94
2018-06-20T04:07:08.797Z,1017.95
2018-06-20T04:08:08.800Z,1017.93
2018-06-20T04:09:08.599Z,1017.95
2018-06-20T04:10:08.808Z,1017.92
2018-06-20T04:11:08.607Z,1017.94
2018-06-20T04:12:08.610Z,1017.92
2018-06-20T04:13:08.613Z,1017.91
2018-06-20T04:14:08.821Z,1017.94
2018-06-20T04:15:08.620Z,1017.91
2018-06-20T04:16:08.626Z,1017.96
2018-06-20T04:17:08.637Z,1017.93
2018-06-20T04:18:08.655Z,1017.92
2018-06-20T04:19:08.640Z,1017.90
2018-06-20T04:20:08.846Z,1017.89
2018-06-20T04:21:08.652Z,1017.90
2018-06-20T04:22:08.865Z,1017.91
2018-06-20T04:23:08.865Z,1017.89
2018-06-20T04:24:08.666Z,1017.87
2018-06-20T04:25:08.657Z,1017.85
2018-06-20T04:26:08.665Z,1017.86
2018-06-20T04:27:08.704Z,1017.86
2018-06-20T04:28:08.918Z,1017.86
2018-06-20T04:29:08.691Z,1017.88
2018-06-20T04:30:08.690Z,1017.89
2018-06-20T04:31:08.681Z,1017.91
2018-06-20T04:32:08.686Z,1017.90
2018-06-20T04:33:08.689Z,1017.85
2018-06-20T04:34:08.707Z,1017.90
2018-06-20T04:35:08.696Z,1017.88
2018-06-20T04:36:08.716Z,1017.88
2018-06-20T04:37:08.706Z,1017.90
2018-06-20T04:38:08.727Z,1017.90
2018-06-20T04:39:08.713Z,1017.86
2018-06-20T04:40:08.725Z,1017.86
2018-06-20T04:41:08.732Z,1017.85
2018-06-20T04:42:08.738Z,1017.86
2018-06-20T04:43:08.731Z,1017.89
2018-06-20T04:44:08.733Z,1017.83
2018-06-20T04:45:08.964Z,1017.85
2018-06-20T04:46:08.956Z,1017.82
2018-06-20T04:47:08.757Z,1017.84
2018-06-20T04:48:08.950Z,1017.83
2018-06-20T04:49:08.970Z,1017.84
2018-06-20T04:50:08.973Z,1017.83
2018-06-20T04:51:08.981Z,1017.87
2018-06-20T04:52:08.993Z,1017.81
2018-06-20T04:53:08.768Z,1017.83
2018-06-20T04:54:08.783Z,1017.83
2018-06-20T04:55:08.791Z,1017.82
2018-06-20T04:56:08.781Z,1017.83
2018-06-20T04:57:08.786Z,1017.83
2018-06-20T04:58:08.794Z,1017.85
2018-06-20T04:59:08.792Z,1017.82
2018-06-20T05:00:08.801Z,1017.83
2018-06-20T05:01:08.822Z,1017.87
2018-06-20T05:02:08.912Z,1017.84
2018-06-20T05:03:08.820Z,1017.83
2018-06-20T05:04:09.021Z,1017.86
2018-06-20T05:05:08.824Z,1017.85
2018-06-20T05:06:09.026Z,1017.86
2018-06-20T05:07:08.826Z,1017.84
2018-06-20T05:08:08.830Z,1017.86
2018-06-20T05:09:08.833Z,1017.87
2018-06-20T05:10:08.846Z,1017.88
2018-06-20T05:11:08.845Z,1017.88
2018-06-20T05:12:08.848Z,1017.91
2018-06-20T05:13:08.854Z,1017.86
2018-06-20T05:14:08.859Z,1017.84
2018-06-20T05:15:08.890Z,1017.87
2018-06-20T05:16:09.082Z,1017.88
2018-06-20T05:17:09.077Z,1017.88
2018-06-20T05:18:09.073Z,1017.84
2018-06-20T05:19:08.881Z,1017.89
2018-06-20T05:20:09.086Z,1017.91
2018-06-20T05:21:08.899Z,1017.88
2018-06-20T05:22:08.891Z,1017.88
2018-06-20T05:23:08.895Z,1017.85
2018-06-20T05:24:08.898Z,1017.87
2018-06-20T05:25:08.910Z,1017.83
2018-06-20T05:26:08.918Z,1017.85
2018-06-20T05:27:08.910Z,1017.78
2018-06-20T05:28:08.915Z,1017.80
2018-06-20T05:29:08.940Z,1017.76
2018-06-20T05:30:08.923Z,1017.75
2018-06-20T05:31:08.925Z,1017.75
2018-06-20T05:32:08.932Z,1017.74
2018-06-20T05:33:08.946Z,1017.76
2018-06-20T05:34:08.940Z,1017.77
2018-06-20T05:35:09.145Z,1017.80
2018-06-20T05:36:08.948Z,1017.81
2018-06-20T05:37:08.951Z,1017.81
2018-06-20T05:38:08.957Z,1017.85
2018-06-20T05:39:08.979Z,1017.85
2018-06-20T05:40:09.165Z,1017.86
2018-06-20T05:41:08.967Z,1017.85
2018-06-20T05:42:09.186Z,1017.82
2018-06-20T05:43:08.993Z,1017.77
2018-06-20T05:44:08.993Z,1017.83
2018-06-20T05:45:09.191Z,1017.81
2018-06-20T05:46:09.006Z,1017.82
2018-06-20T05:47:08.993Z,1017.77
2018-06-20T05:48:09.011Z,1017.78
2018-06-20T05:49:09.020Z,1017.76
2018-06-20T05:50:09.032Z,1017.79
2018-06-20T05:51:09.023Z,1017.76
2018-06-20T05:52:09.017Z,1017.79
2018-06-20T05:53:09.239Z,1017.80
2018-06-20T05:54:09.024Z,1017.78
2018-06-20T05:55:09.038Z,1017.77
2018-06-20T05:56:09.032Z,1017.78
2018-06-20T05:57:09.058Z,1017.79
2018-06-20T05:58:09.245Z,1017.79
2018-06-20T05:59:09.044Z,1017.79
2018-06-20T06:00:09.059Z,1017.77
2018-06-20T06:01:09.083Z,1017.76
2018-06-20T06:02:09.059Z,1017.73
2018-06-20T06:03:09.074Z,1017.72
2018-06-20T06:04:09.077Z,1017.73
2018-06-20T06:05:09.125Z,1017.71
2018-06-20T06:06:09.086Z,1017.72
2018-06-20T06:07:09.102Z,1017.75
2018-06-20T06:08:09.088Z,1017.74
2018-06-20T06:09:09.103Z,1017.72
2018-06-20T06:10:09.099Z,1017.72
2018-06-20T06:11:09.112Z,1017.70
2018-06-20T06:12:09.106Z,1017.69
2018-06-20T06:13:09.310Z,1017.73
2018-06-20T06:14:09.112Z,1017.73
2018-06-20T06:15:09.115Z,1017.69
2018-06-20T06:16:09.133Z,1017.70
2018-06-20T06:17:09.217Z,1017.70
2018-06-20T06:18:09.131Z,1017.67
2018-06-20T06:19:09.153Z,1017.70
2018-06-20T06:20:09.155Z,1017.74
2018-06-20T06:21:09.154Z,1017.76
2018-06-20T06:22:09.172Z,1017.77
2018-06-20T06:23:09.162Z,1017.80
2018-06-20T06:24:09.357Z,1017.77
2018-06-20T06:25:09.385Z,1017.77
2018-06-20T06:26:09.174Z,1017.78
2018-06-20T06:27:09.169Z,1017.76
2018-06-20T06:28:09.184Z,1017.73
2018-06-20T06:29:09.179Z,1017.72
2018-06-20T06:30:09.183Z,1017.77
2018-06-20T06:31:09.196Z,1017.72
2018-06-20T06:32:09.191Z,1017.73
2018-06-20T06:33:09.193Z,1017.73
2018-06-20T06:34:09.419Z,1017.73
2018-06-20T06:35:09.223Z,1017.73
2018-06-20T06:36:09.238Z,1017.72
2018-06-20T06:37:09.211Z,1017.71
2018-06-20T06:38:09.232Z,1017.71
2018-06-20T06:39:09.225Z,1017.73
2018-06-20T06:40:09.230Z,1017.74
2018-06-20T06:41:09.248Z,1017.70
2018-06-20T06:42:09.248Z,1017.71
2018-06-20T06:43:09.239Z,1017.68
2018-06-20T06:44:09.242Z,1017.70
2018-06-20T06:45:09.276Z,1017.69
2018-06-20T06:46:09.254Z,1017.74
2018-06-20T06:47:09.256Z,1017.75
2018-06-20T06:48:09.291Z,1017.76
2018-06-20T06:49:09.269Z,1017.72
2018-06-20T06:50:09.370Z,1017.75
2018-06-20T06:51:09.303Z,1017.71
2018-06-20T06:52:09.309Z,1017.74
2018-06-20T06:53:09.323Z,1017.70
2018-06-20T06:54:09.288Z,1017.71
2018-06-20T06:55:09.292Z,1017.73
2018-06-20T06:56:09.366Z,1017.74
2018-06-20T06:57:09.301Z,1017.74
2018-06-20T06:58:09.305Z,1017.75
2018-06-20T06:59:09.308Z,1017.76
2018-06-20T07:00:09.314Z,1017.72
2018-06-20T07:01:09.332Z,1017.70
2018-06-20T07:02:09.325Z,1017.68
2018-06-20T07:03:09.538Z,1017.69
2018-06-20T07:04:09.344Z,1017.69
2018-06-20T07:05:09.352Z,1017.69
2018-06-20T07:06:09.563Z,1017.70
2018-06-20T07:07:09.545Z,1017.70
2018-06-20T07:08:09.347Z,1017.72
2018-06-20T07:09:09.365Z,1017.70
2018-06-20T07:10:09.357Z,1017.72
2018-06-20T07:11:09.363Z,1017.70
2018-06-20T07:12:09.366Z,1017.72
2018-06-20T07:13:09.379Z,1017.70
2018-06-20T07:14:09.373Z,1017.68
2018-06-20T07:15:09.388Z,1017.70
2018-06-20T07:16:09.381Z,1017.69
2018-06-20T07:17:09.416Z,1017.68
2018-06-20T07:18:09.395Z,1017.66
2018-06-20T07:19:09.397Z,1017.66
2018-06-20T07:20:09.412Z,1017.65
2018-06-20T07:21:09.406Z,1017.68
2018-06-20T07:22:09.420Z,1017.68
2018-06-20T07:23:09.418Z,1017.69
2018-06-20T07:24:09.436Z,1017.68
2018-06-20T07:25:09.422Z,1017.69
2018-06-20T07:26:09.633Z,1017.67
2018-06-20T07:27:09.441Z,1017.63
2018-06-20T07:28:09.434Z,1017.68
2018-06-20T07:29:09.668Z,1017.65
2018-06-20T07:30:09.650Z,1017.66
2018-06-20T07:31:09.471Z,1017.60
2018-06-20T07:32:09.465Z,1017.64
2018-06-20T07:33:09.457Z,1017.64
2018-06-20T07:34:09.686Z,1017.63
2018-06-20T07:35:09.477Z,1017.60
2018-06-20T07:36:09.727Z,1017.58
2018-06-20T07:37:09.490Z,1017.61
2018-06-20T07:38:09.499Z,1017.56
2018-06-20T07:39:09.484Z,1017.61
2018-06-20T07:40:09.500Z,1017.57
2018-06-20T07:41:09.505Z,1017.57
2018-06-20T07:42:09.509Z,1017.56
2018-06-20T07:43:09.514Z,1017.52
2018-06-20T07:44:09.508Z,1017.54
2018-06-20T07:45:09.808Z,1017.55
2018-06-20T07:46:09.534Z,1017.54
2018-06-20T07:47:09.537Z,1017.56
2018-06-20T07:48:09.528Z,1017.53
2018-06-20T07:49:09.531Z,1017.54
2018-06-20T07:50:09.538Z,1017.55
2018-06-20T07:51:09.540Z,1017.53
2018-06-20T07:52:09.546Z,1017.52
2018-06-20T07:53:09.563Z,1017.50
2018-06-20T07:54:09.572Z,1017.50
2018-06-20T07:55:09.560Z,1017.52
2018-06-20T07:56:09.569Z,1017.53
2018-06-20T07:57:09.574Z,1017.51
2018-06-20T07:58:09.581Z,1017.53
2018-06-20T07:59:09.583Z,1017.53
2018-06-20T08:00:09.594Z,1017.58
2018-06-20T08:01:09.795Z,1017.52
2018-06-20T08:02:09.599Z,1017.53
2018-06-20T08:03:09.802Z,1017.58
2018-06-20T08:04:09.607Z,1017.60
2018-06-20T08:05:09.611Z,1017.60
2018-06-20T08:06:09.657Z,1017.62
2018-06-20T08:07:09.622Z,1017.62
2018-06-20T08:08:09.629Z,1017.61
2018-06-20T08:09:09.634Z,1017.54
2018-06-20T08:10:09.638Z,1017.55
2018-06-20T08:11:09.670Z,1017.63
2018-06-20T08:12:09.646Z,1017.53
2018-06-20T08:13:09.654Z,1017.52
2018-06-20T08:14:09.681Z,1017.53
2018-06-20T08:15:09.865Z,1017.53
2018-06-20T08:16:09.665Z,1017.60
2018-06-20T08:17:09.889Z,1017.57
2018-06-20T08:18:09.901Z,1017.52
2018-06-20T08:19:09.694Z,1017.61
2018-06-20T08:20:09.700Z,1017.52
2018-06-20T08:21:09.895Z,1017.50
2018-06-20T08:22:09.708Z,1017.51
2018-06-20T08:23:09.708Z,1017.52
2018-06-20T08:24:09.710Z,1017.54
2018-06-20T08:25:09.724Z,1017.54
2018-06-20T08:26:09.732Z,1017.53
2018-06-20T08:27:09.734Z,1017.54
2018-06-20T08:28:09.728Z,1017.51
2018-06-20T08:29:09.747Z,1017.46
2018-06-20T08:30:09.742Z,1017.49
2018-06-20T08:31:09.756Z,1017.46
2018-06-20T08:32:09.769Z,1017.45
2018-06-20T08:33:09.770Z,1017.45
2018-06-20T08:34:09.773Z,1017.44
2018-06-20T08:35:09.780Z,1017.41
2018-06-20T08:36:09.771Z,1017.44
2018-06-20T08:37:09.789Z,1017.40
2018-06-20T08:38:09.789Z,1017.40
2018-06-20T08:39:09.814Z,1017.37
2018-06-20T08:40:09.793Z,1017.37
2018-06-20T08:41:09.816Z,1017.37
2018-06-20T08:42:09.804Z,1017.35
2018-06-20T08:43:09.809Z,1017.40
2018-06-20T08:44:09.825Z,1017.37
2018-06-20T08:45:09.819Z,1017.39
2018-06-20T08:46:09.825Z,1017.38
2018-06-20T08:47:09.841Z,1017.38
2018-06-20T08:48:09.862Z,1017.37
2018-06-20T08:49:09.868Z,1017.38
2018-06-20T08:50:09.870Z,1017.35
2018-06-20T08:51:09.865Z,1017.39
2018-06-20T08:52:09.859Z,1017.33
2018-06-20T08:53:09.903Z,1017.32
2018-06-20T08:54:09.869Z,1017.28
2018-06-20T08:55:09.872Z,1017.29
2018-06-20T08:56:09.878Z,1017.32
2018-06-20T08:57:09.894Z,1017.31
2018-06-20T08:58:09.905Z,1017.32
2018-06-20T08:59:09.891Z,1017.30
2018-06-20T09:00:09.898Z,1017.30
2018-06-20T09:01:09.917Z,1017.26
2018-06-20T09:02:09.978Z,1017.24
2018-06-20T09:03:10.121Z,1017.26
2018-06-20T09:04:10.126Z,1017.28
2018-06-20T09:05:09.931Z,1017.22
2018-06-20T09:06:09.943Z,1017.21
2018-06-20T09:07:09.947Z,1017.22
2018-06-20T09:08:09.947Z,1017.21
2018-06-20T09:13:37.415Z,1017.10
2018-06-20T09:14:37.441Z,1017.13
2018-06-20T09:15:37.441Z,1017.13
2018-06-20T09:16:37.439Z,1017.11
2018-06-20T09:17:37.435Z,1017.13
2018-06-20T09:18:37.441Z,1017.12
2018-06-20T09:19:37.664Z,1017.11
2018-06-20T09:20:37.465Z,1017.11
2018-06-20T09:21:37.460Z,1017.11
2018-06-20T09:22:37.665Z,1017.09
2018-06-20T09:23:37.482Z,1017.11
2018-06-20T09:24:37.472Z,1017.12
2018-06-20T09:25:37.476Z,1017.08
2018-06-20T09:26:37.497Z,1017.10
2018-06-20T09:27:37.509Z,1017.06
2018-06-20T09:28:37.494Z,1017.09
2018-06-20T09:29:37.702Z,1017.12
2018-06-20T09:30:37.506Z,1017.05
2018-06-20T09:31:37.530Z,1017.03
2018-06-20T09:32:37.738Z,1017.02
2018-06-20T09:33:37.738Z,1017.01
2018-06-20T09:34:37.537Z,1017.04
2018-06-20T09:35:37.541Z,1017.01
2018-06-20T09:36:37.551Z,1017.05
2018-06-20T09:37:37.542Z,1017.03
2018-06-20T09:38:37.758Z,1017.05
2018-06-20T09:39:37.836Z,1017.03
2018-06-20T09:40:37.761Z,1017.07
2018-06-20T09:41:37.589Z,1017.00
2018-06-20T09:42:37.568Z,1017.04
2018-06-20T09:43:37.780Z,1017.05
2018-06-20T09:44:37.634Z,1017.03
2018-06-20T09:45:37.809Z,1017.04
2018-06-20T09:46:37.591Z,1017.01
2018-06-20T09:47:37.596Z,1016.99
2018-06-20T09:48:37.603Z,1016.97
2018-06-20T09:49:37.617Z,1016.98
2018-06-20T09:50:37.613Z,1016.94
2018-06-20T09:51:37.633Z,1016.91
2018-06-20T09:52:37.623Z,1016.91
2018-06-20T09:53:37.629Z,1016.87
2018-06-20T09:54:37.646Z,1016.93
2018-06-20T09:55:37.641Z,1016.91
2018-06-20T09:56:37.645Z,1016.89
2018-06-20T09:57:37.853Z,1016.90
2018-06-20T09:58:37.686Z,1016.90
2018-06-20T09:59:37.672Z,1016.85
2018-06-20T10:00:37.680Z,1016.86
2018-06-20T10:01:37.798Z,1016.92
2018-06-20T10:02:37.707Z,1016.88
2018-06-20T10:03:37.708Z,1016.88
2018-06-20T10:04:37.903Z,1016.85
2018-06-20T10:05:37.716Z,1016.82
2018-06-20T10:06:37.715Z,1016.85
2018-06-20T10:07:37.736Z,1016.80
2018-06-20T10:08:37.728Z,1016.81
2018-06-20T10:09:37.734Z,1016.80
2018-06-20T10:10:37.735Z,1016.78
2018-06-20T10:11:37.738Z,1016.82
2018-06-20T10:12:37.756Z,1016.79
2018-06-20T10:13:37.746Z,1016.81
2018-06-20T10:14:37.760Z,1016.78
2018-06-20T10:15:37.781Z,1016.80
2018-06-20T10:16:37.974Z,1016.81
2018-06-20T10:17:37.963Z,1016.81
2018-06-20T10:18:37.768Z,1016.82
2018-06-20T10:19:37.784Z,1016.80
2018-06-20T10:20:37.792Z,1016.82
2018-06-20T10:21:37.798Z,1016.79
2018-06-20T10:22:37.800Z,1016.82
2018-06-20T10:23:37.795Z,1016.78
2018-06-20T10:24:37.802Z,1016.80
2018-06-20T10:25:37.816Z,1016.76
2018-06-20T10:26:37.822Z,1016.79
2018-06-20T10:27:38.047Z,1016.76
2018-06-20T10:28:37.843Z,1016.76
2018-06-20T10:29:37.829Z,1016.73
2018-06-20T10:30:37.835Z,1016.75
2018-06-20T10:31:37.856Z,1016.70
2018-06-20T10:32:37.855Z,1016.73
2018-06-20T10:33:37.867Z,1016.76
2018-06-20T10:34:37.869Z,1016.75
2018-06-20T10:35:37.873Z,1016.78
2018-06-20T10:36:37.866Z,1016.74
2018-06-20T10:37:37.873Z,1016.71
2018-06-20T10:38:38.092Z,1016.69
2018-06-20T10:39:37.883Z,1016.67
2018-06-20T10:40:37.907Z,1016.66
2018-06-20T10:41:38.114Z,1016.70
2018-06-20T10:42:37.917Z,1016.66
2018-06-20T10:43:37.907Z,1016.63
2018-06-20T10:44:37.913Z,1016.63
2018-06-20T10:45:37.919Z,1016.58
2018-06-20T10:46:37.924Z,1016.62
2018-06-20T10:47:37.931Z,1016.57
2018-06-20T10:48:38.139Z,1016.58
2018-06-20T10:49:37.942Z,1016.55
2018-06-20T10:50:37.947Z,1016.51
2018-06-20T10:51:38.153Z,1016.55
2018-06-20T10:52:38.161Z,1016.51
2018-06-20T10:53:37.967Z,1016.49
2018-06-20T10:54:37.969Z,1016.51
2018-06-20T10:55:37.977Z,1016.53
2018-06-20T10:56:37.982Z,1016.55
2018-06-20T10:57:37.998Z,1016.53
2018-06-20T10:58:38.013Z,1016.56
2018-06-20T10:59:38.212Z,1016.52
2018-06-20T11:00:38.040Z,1016.46
2018-06-20T11:01:38.231Z,1016.44
2018-06-20T11:02:38.016Z,1016.46
2018-06-20T11:03:38.224Z,1016.46
2018-06-20T11:04:38.032Z,1016.45
2018-06-20T11:05:38.042Z,1016.43
2018-06-20T11:06:38.050Z,1016.44
2018-06-20T11:07:38.054Z,1016.40
2018-06-20T11:08:38.254Z,1016.37
2018-06-20T11:09:38.082Z,1016.35
2018-06-20T11:10:38.269Z,1016.32
2018-06-20T11:11:38.067Z,1016.34
2018-06-20T11:12:38.075Z,1016.30
2018-06-20T11:13:38.292Z,1016.30
2018-06-20T11:14:38.298Z,1016.32
2018-06-20T11:15:38.302Z,1016.34
2018-06-20T11:16:38.112Z,1016.31
2018-06-20T11:17:38.332Z,1016.27
2018-06-20T11:18:38.118Z,1016.26
2018-06-20T11:19:38.142Z,1016.27
2018-06-20T11:20:38.123Z,1016.24
2018-06-20T11:21:38.131Z,1016.25
2018-06-20T11:22:38.138Z,1016.23
2018-06-20T11:23:38.152Z,1016.27
2018-06-20T11:24:38.172Z,1016.22
2018-06-20T11:25:38.167Z,1016.22
2018-06-20T11:26:38.158Z,1016.21
2018-06-20T11:27:38.172Z,1016.17
2018-06-20T11:28:38.172Z,1016.17
2018-06-20T11:29:38.187Z,1016.19
2018-06-20T11:30:38.380Z,1016.18
2018-06-20T11:31:38.199Z,1016.16
2018-06-20T11:32:38.199Z,1016.12
2018-06-20T11:33:38.205Z,1016.10
2018-06-20T11:34:38.203Z,1016.07
2018-06-20T11:35:38.210Z,1016.10
2018-06-20T11:36:38.436Z,1016.12
2018-06-20T11:37:38.247Z,1016.09
2018-06-20T11:38:38.235Z,1016.07
2018-06-20T11:39:38.246Z,1016.06
2018-06-20T11:40:38.237Z,1016.03
2018-06-20T11:41:38.258Z,1016.05
2018-06-20T11:42:38.262Z,1016.00
2018-06-20T11:43:38.254Z,1015.98
2018-06-20T11:44:38.276Z,1015.96
2018-06-20T11:45:38.266Z,1015.93
2018-06-20T11:46:38.292Z,1015.91
2018-06-20T11:47:38.282Z,1015.91
2018-06-20T11:48:38.287Z,1015.93
2018-06-20T11:49:38.318Z,1015.88
2018-06-20T11:50:38.297Z,1015.89
2018-06-20T11:51:38.309Z,1015.86
2018-06-20T11:52:38.311Z,1015.86
2018-06-20T11:53:38.312Z,1015.80
2018-06-20T11:54:38.320Z,1015.81
2018-06-20T11:55:38.547Z,1015.84
2018-06-20T11:56:38.332Z,1015.82
2018-06-20T11:57:38.347Z,1015.80
2018-06-20T11:58:38.354Z,1015.77
2018-06-20T11:59:38.364Z,1015.79
2018-06-20T12:00:38.373Z,1015.77
2018-06-20T12:01:38.595Z,1015.77
2018-06-20T12:02:38.371Z,1015.76
2018-06-20T12:03:38.387Z,1015.75
2018-06-20T12:04:38.382Z,1015.74
2018-06-20T12:05:38.384Z,1015.71
2018-06-20T12:06:38.417Z,1015.77
2018-06-20T12:07:38.397Z,1015.72
2018-06-20T12:08:38.420Z,1015.73
2018-06-20T12:09:38.422Z,1015.70